Terminal Aerodrome Forecast
Issued by NWS

Home | Current Version | Previous Version | Graphics & Text | Print | Product List | Glossary On
Versions: 1 2 3 4 5 6 7 8 9 10 11 12 13 14 15 16 17 18 19 20 21
754
FTUS43 KTOP 110520
TAFFOE
TAF
KFOE 110520Z 1106/1206 02007KT P6SM SCT030 SCT130
     FM111100 05007KT P6SM SCT015 BKN020
     FM111800 16007KT P6SM SCT020 SCT100=

USA.gov is the U.S. government's official web portal to all federal, state and local government web resources and services.